Time;durP1;ratioP1;P1;durP2;ratioP2;P2;SDS_P1;SDS_P2;PMS_P1;PMS_P2;Temp;Humidity;BMP_temperature;BMP_pressure;BME280_temperature;BME280_humidity;BME280_pressure;Samples;Min_cycle;Max_cycle;Signal;HPM_P1;HPM_P2
2022/12/02 00:02:32;;;;;;;49.50;25.27;;;4.50;99.90;;;;;;5012558;28;20056;-81
2022/12/02 00:05:14;;;;;;;43.90;26.30;;;4.70;99.90;;;;;;5011637;28;20048;-81
2022/12/02 00:07:41;;;;;;;40.87;24.77;;;4.40;99.90;;;;;;5009487;28;20150;-81
2022/12/02 00:10:27;;;;;;;40.72;25.67;;;4.40;99.90;;;;;;5029185;28;20940;-83
2022/12/02 00:12:54;;;;;;;34.35;23.83;;;4.30;99.90;;;;;;5014244;28;20057;-80
2022/12/02 00:15:36;;;;;;;37.58;23.20;;;5.20;99.90;;;;;;5024233;28;20117;-80
2022/12/02 00:18:02;;;;;;;38.10;24.47;;;4.30;99.90;;;;;;5021757;28;20163;-82
2022/12/02 00:20:28;;;;;;;39.22;24.10;;;4.30;99.90;;;;;;5024245;28;20124;-80
2022/12/02 00:22:54;;;;;;;39.78;23.60;;;4.20;99.90;;;;;;5016152;28;20780;-81
2022/12/02 00:25:20;;;;;;;42.70;24.60;;;4.30;99.90;;;;;;5018414;28;20056;-80
2022/12/02 00:27:45;;;;;;;44.20;25.67;;;4.50;99.90;;;;;;5022847;28;20049;-83
2022/12/02 00:30:11;;;;;;;44.75;25.88;;;4.80;99.90;;;;;;5022652;28;20064;-80
2022/12/02 00:32:37;;;;;;;44.75;24.33;;;4.20;99.90;;;;;;5018990;28;20184;-81
2022/12/02 00:35:03;;;;;;;40.13;24.85;;;4.20;99.90;;;;;;5015075;28;20061;-81
2022/12/02 00:37:29;;;;;;;36.25;23.23;;;4.30;99.90;;;;;;5019104;28;20045;-81
2022/12/02 00:39:54;;;;;;;32.80;22.75;;;4.20;99.90;;;;;;5016512;28;20132;-83
2022/12/02 00:42:20;;;;;;;33.38;21.92;;;4.20;99.90;;;;;;5016498;28;20080;-81
2022/12/02 00:47:30;;;;;;;30.05;18.90;;;4.40;99.90;;;;;;5016579;28;20064;-80
2022/12/02 00:49:56;;;;;;;28.98;17.27;;;4.20;99.90;;;;;;5020923;28;20605;-80
2022/12/02 00:52:21;;;;;;;29.17;17.95;;;4.20;99.90;;;;;;5019350;28;20909;-82
2022/12/02 00:54:47;;;;;;;27.80;17.73;;;4.30;99.90;;;;;;5007102;28;20498;-81
2022/12/02 00:57:13;;;;;;;29.15;18.23;;;4.30;99.90;;;;;;5017506;28;20042;-80
2022/12/02 00:59:38;;;;;;;28.98;18.77;;;4.50;99.90;;;;;;5018629;28;20052;-81
2022/12/02 01:02:04;;;;;;;33.95;18.35;;;4.40;99.90;;;;;;5027325;28;20098;-81
2022/12/02 01:04:30;;;;;;;27.85;17.55;;;4.20;99.90;;;;;;5025277;28;20054;-80
2022/12/02 01:06:55;;;;;;;26.20;17.02;;;4.30;99.90;;;;;;5027930;28;20561;-80
2022/12/02 01:09:21;;;;;;;28.67;18.45;;;4.20;99.90;;;;;;5016301;28;20534;-80
2022/12/02 01:11:46;;;;;;;29.75;17.75;;;4.30;99.90;;;;;;5020680;28;20489;-82
2022/12/02 01:14:12;;;;;;;28.90;18.23;;;4.20;99.90;;;;;;5018404;28;20179;-81
2022/12/02 01:16:38;;;;;;;34.75;19.88;;;4.20;99.90;;;;;;5018784;28;20045;-82
2022/12/02 01:19:03;;;;;;;41.10;22.50;;;4.20;99.90;;;;;;5018885;28;20099;-80
2022/12/02 01:21:29;;;;;;;41.13;24.55;;;5.20;99.90;;;;;;5016469;28;20060;-80
2022/12/02 01:23:55;;;;;;;41.30;24.40;;;4.20;99.90;;;;;;5013968;28;20553;-81
2022/12/02 01:26:20;;;;;;;33.60;21.60;;;4.20;99.90;;;;;;5017994;28;20481;-82
2022/12/02 01:28:46;;;;;;;34.60;20.98;;;4.10;99.90;;;;;;5017402;28;20045;-81
2022/12/02 01:31:13;;;;;;;34.70;20.50;;;4.20;99.90;;;;;;5003206;28;20077;-82
2022/12/02 01:33:39;;;;;;;34.70;19.67;;;4.10;99.90;;;;;;5017284;28;20045;-81
2022/12/02 01:36:05;;;;;;;32.95;18.63;;;4.10;99.90;;;;;;5012027;28;20056;-81
2022/12/02 01:38:31;;;;;;;28.35;15.95;;;4.10;99.90;;;;;;5024047;28;20045;-80
2022/12/02 01:40:57;;;;;;;34.33;18.30;;;4.30;99.90;;;;;;5015341;28;20060;-80
2022/12/02 01:43:23;;;;;;;27.65;18.38;;;4.10;99.90;;;;;;5022050;28;20084;-81
2022/12/02 01:45:49;;;;;;;28.80;17.30;;;4.10;99.90;;;;;;5014946;28;20128;-81
2022/12/02 01:48:15;;;;;;;26.17;17.00;;;4.60;99.90;;;;;;5016165;28;20148;-81
2022/12/02 01:50:40;;;;;;;30.73;18.40;;;4.50;99.90;;;;;;5017537;28;20085;-81
2022/12/02 01:53:06;;;;;;;29.15;17.65;;;4.00;99.90;;;;;;5020901;28;20046;-80
2022/12/02 01:55:32;;;;;;;29.42;18.15;;;4.00;99.90;;;;;;5015153;28;21281;-81
2022/12/02 01:57:58;;;;;;;33.85;18.13;;;5.00;99.90;;;;;;5022909;28;20139;-81
2022/12/02 02:00:24;;;;;;;32.08;20.35;;;4.00;99.90;;;;;;5025201;28;20136;-81
2022/12/02 02:02:50;;;;;;;26.75;19.17;;;3.90;99.90;;;;;;5020570;28;20045;-81
2022/12/02 02:05:25;;;;;;;37.08;20.40;;;3.90;99.90;;;;;;5013762;28;20071;-81
2022/12/02 02:07:58;;;;;;;37.42;20.98;;;3.90;99.90;;;;;;5006726;28;20042;-80
2022/12/02 02:10:25;;;;;;;35.10;21.50;;;3.90;99.90;;;;;;5015880;28;20095;-81
2022/12/02 02:12:51;;;;;;;33.95;22.30;;;3.90;99.90;;;;;;5016724;28;20045;-80
2022/12/02 02:15:18;;;;;;;30.02;20.52;;;4.30;99.90;;;;;;5020498;28;20766;-81
2022/12/02 02:17:44;;;;;;;37.67;21.75;;;3.90;99.90;;;;;;5018734;28;20537;-81
2022/12/02 02:20:15;;;;;;;34.60;21.17;;;3.90;99.90;;;;;;5017440;28;20895;-82
2022/12/02 02:22:52;;;;;;;38.15;22.73;;;3.90;99.90;;;;;;5017701;28;20057;-82
2022/12/02 02:25:18;;;;;;;36.10;21.23;;;4.00;99.90;;;;;;5014925;28;20180;-81
2022/12/02 02:27:50;;;;;;;30.17;19.00;;;3.90;99.90;;;;;;5011462;28;20464;-80
2022/12/02 02:30:16;;;;;;;39.78;21.17;;;3.90;99.90;;;;;;5014394;28;20060;-82
2022/12/02 02:32:42;;;;;;;40.13;21.90;;;4.10;99.90;;;;;;5019986;28;20049;-82
2022/12/02 02:35:08;;;;;;;36.30;22.42;;;3.90;99.90;;;;;;5019483;28;20056;-82
2022/12/02 02:37:34;;;;;;;43.55;24.80;;;3.90;99.90;;;;;;5019745;28;20065;-81
2022/12/02 02:39:59;;;;;;;39.00;24.08;;;3.90;99.90;;;;;;5017211;28;20692;-81
2022/12/02 02:42:26;;;;;;;41.65;23.00;;;3.90;99.90;;;;;;5013659;28;20045;-81
2022/12/02 02:44:51;;;;;;;41.10;23.52;;;3.90;99.90;;;;;;5025781;28;20046;-81
2022/12/02 02:47:17;;;;;;;44.63;23.33;;;3.90;99.90;;;;;;5017769;28;20083;-81
2022/12/02 02:49:43;;;;;;;43.90;25.98;;;3.80;99.90;;;;;;5012952;28;20065;-82
2022/12/02 02:52:09;;;;;;;38.25;23.92;;;3.80;99.90;;;;;;5012913;28;20049;-82
2022/12/02 02:54:34;;;;;;;39.13;22.85;;;3.70;99.90;;;;;;5016264;28;20048;-81
2022/12/02 02:57:00;;;;;;;34.70;24.05;;;3.70;99.90;;;;;;5016639;28;20516;-82
2022/12/02 02:59:26;;;;;;;39.95;24.58;;;3.70;99.90;;;;;;5018846;28;20044;-82
2022/12/02 03:01:52;;;;;;;40.75;23.58;;;3.70;99.90;;;;;;5013792;28;20048;-81
2022/12/02 03:04:20;;;;;;;41.63;24.42;;;3.60;99.90;;;;;;5010332;28;20104;-82
2022/12/02 03:06:48;;;;;;;39.13;23.25;;;3.70;99.90;;;;;;5014655;28;20114;-82
2022/12/02 03:09:17;;;;;;;39.38;23.70;;;3.70;99.90;;;;;;5015004;28;20637;-80
2022/12/02 03:11:46;;;;;;;37.55;23.92;;;3.60;99.90;;;;;;5019566;28;20069;-82
2022/12/02 03:14:12;;;;;;;33.97;23.27;;;3.70;99.90;;;;;;5016954;28;20045;-83
2022/12/02 03:16:38;;;;;;;36.97;21.42;;;3.70;99.90;;;;;;5015813;28;20803;-81
2022/12/02 03:19:04;;;;;;;36.33;23.45;;;3.70;99.90;;;;;;5019051;28;20145;-81
2022/12/02 03:21:32;;;;;;;37.80;21.73;;;3.70;99.90;;;;;;5017191;28;20056;-82
2022/12/02 03:24:01;;;;;;;30.73;21.08;;;4.40;99.90;;;;;;5017714;28;20062;-81
2022/12/02 03:26:28;;;;;;;30.35;21.00;;;3.80;99.90;;;;;;5013923;28;20052;-80
2022/12/02 03:28:55;;;;;;;38.35;22.35;;;4.80;99.90;;;;;;5019037;28;20949;-81
2022/12/02 03:31:21;;;;;;;32.90;20.90;;;4.40;99.90;;;;;;5017033;28;21296;-81
2022/12/02 03:33:48;;;;;;;41.80;22.17;;;3.70;99.90;;;;;;5010023;28;20041;-82
2022/12/02 03:36:14;;;;;;;41.85;23.05;;;3.90;99.90;;;;;;5002994;28;20054;-80
2022/12/02 03:38:40;;;;;;;39.45;21.85;;;3.80;99.90;;;;;;5025762;28;20045;-81
2022/12/02 03:41:06;;;;;;;35.95;22.42;;;3.70;99.90;;;;;;5015597;28;20049;-81
2022/12/02 03:43:32;;;;;;;38.15;22.23;;;3.70;99.90;;;;;;5007801;28;20088;-80
2022/12/02 03:45:59;;;;;;;38.30;21.27;;;3.70;99.90;;;;;;5017292;28;20041;-81
2022/12/02 03:48:26;;;;;;;34.17;21.02;;;3.70;99.90;;;;;;5016774;28;20765;-81
2022/12/02 03:50:53;;;;;;;36.47;21.85;;;3.80;99.90;;;;;;5019822;28;20481;-81
2022/12/02 03:53:20;;;;;;;34.85;22.33;;;4.50;99.90;;;;;;5015386;28;20045;-82
2022/12/02 03:55:46;;;;;;;34.40;20.70;;;3.80;99.90;;;;;;5028428;28;20166;-81
2022/12/02 03:58:12;;;;;;;36.05;20.63;;;4.10;99.90;;;;;;5014200;28;20033;-81
2022/12/02 04:00:38;;;;;;;34.03;22.25;;;3.70;99.90;;;;;;5022864;28;20052;-82
2022/12/02 04:03:04;;;;;;;34.55;20.65;;;3.70;99.90;;;;;;5013728;28;20045;-82
2022/12/02 04:05:30;;;;;;;42.10;22.73;;;3.70;99.90;;;;;;5013404;28;20108;-82
2022/12/02 04:07:56;;;;;;;32.17;20.98;;;2.60;99.90;;;;;;5012432;28;20052;-81
2022/12/02 04:10:22;;;;;;;40.75;23.40;;;3.60;99.90;;;;;;5027605;28;20072;-81
2022/12/02 04:12:47;;;;;;;39.45;22.80;;;3.60;99.90;;;;;;5016514;28;20045;-80
2022/12/02 04:15:13;;;;;;;40.55;21.88;;;3.60;99.90;;;;;;5019934;28;20740;-80
2022/12/02 04:17:39;;;;;;;35.67;20.77;;;3.60;99.90;;;;;;5009225;28;20050;-79
2022/12/02 04:20:06;;;;;;;37.65;22.45;;;4.30;99.90;;;;;;5027630;28;20152;-81
2022/12/02 04:22:32;;;;;;;43.65;24.02;;;3.60;99.90;;;;;;5016860;28;20049;-82
2022/12/02 04:24:59;;;;;;;37.53;22.83;;;3.60;99.90;;;;;;5019908;28;20716;-82
2022/12/02 04:27:28;;;;;;;36.15;23.25;;;4.00;99.90;;;;;;5015808;28;20417;-80
2022/12/02 04:29:53;;;;;;;37.75;23.65;;;3.50;99.90;;;;;;5015111;28;20099;-81
2022/12/02 04:32:20;;;;;;;37.50;26.17;;;3.50;99.90;;;;;;5017116;28;20539;-81
2022/12/02 04:34:45;;;;;;;39.40;24.33;;;3.60;99.90;;;;;;5018543;28;20812;-80
2022/12/02 04:37:11;;;;;;;41.65;24.23;;;3.70;99.90;;;;;;5014792;28;20055;-82
2022/12/02 04:39:37;;;;;;;46.15;25.17;;;3.40;99.90;;;;;;5017386;28;20053;-81
2022/12/02 04:42:03;;;;;;;46.78;26.85;;;3.40;99.90;;;;;;5015755;28;20060;-82
2022/12/02 04:44:28;;;;;;;42.05;25.38;;;3.30;99.90;;;;;;5004448;28;20533;-80
2022/12/02 04:46:54;;;;;;;42.92;26.10;;;3.30;99.90;;;;;;5017578;28;20038;-80
2022/12/02 04:49:20;;;;;;;48.30;26.58;;;3.90;99.90;;;;;;5016362;28;20052;-80
2022/12/02 04:51:45;;;;;;;40.25;24.90;;;3.40;99.90;;;;;;5015018;28;20050;-81
2022/12/02 04:54:11;;;;;;;48.53;25.63;;;3.30;99.90;;;;;;5008370;28;20157;-80
2022/12/02 04:56:37;;;;;;;39.15;23.80;;;3.30;99.90;;;;;;5018671;28;20048;-81
2022/12/02 04:59:02;;;;;;;44.58;25.38;;;3.40;99.90;;;;;;5027660;28;20104;-81
2022/12/02 05:01:28;;;;;;;45.47;26.60;;;4.70;99.90;;;;;;5022237;28;20868;-82
2022/12/02 05:03:53;;;;;;;43.80;25.33;;;3.40;99.90;;;;;;5017930;28;20536;-80
2022/12/02 05:06:19;;;;;;;43.10;25.27;;;3.40;99.90;;;;;;5013862;28;20152;-80
2022/12/02 05:08:45;;;;;;;48.67;27.83;;;3.30;99.90;;;;;;5017068;28;20128;-81
2022/12/02 05:11:10;;;;;;;45.95;25.92;;;3.90;99.90;;;;;;5019258;28;20596;-80
2022/12/02 05:13:36;;;;;;;42.75;25.83;;;3.70;99.90;;;;;;5021353;28;20085;-81
2022/12/02 05:16:02;;;;;;;46.65;25.50;;;3.30;99.90;;;;;;5033586;28;20048;-81
2022/12/02 05:18:28;;;;;;;42.80;28.05;;;3.30;99.90;;;;;;5020109;28;20166;-82
2022/12/02 05:20:53;;;;;;;41.45;25.38;;;3.30;99.90;;;;;;5017804;28;20053;-80
2022/12/02 05:23:19;;;;;;;48.45;28.55;;;4.30;99.90;;;;;;5018482;28;20057;-81
2022/12/02 05:25:45;;;;;;;46.58;27.83;;;3.30;99.90;;;;;;5025701;28;20041;-82
2022/12/02 05:28:10;;;;;;;42.17;26.48;;;3.30;99.90;;;;;;5017837;28;20041;-79
2022/12/02 05:30:36;;;;;;;41.47;25.48;;;3.50;99.90;;;;;;5019680;28;20097;-82
2022/12/02 05:33:02;;;;;;;47.03;27.38;;;4.10;99.90;;;;;;5018993;28;20127;-82
2022/12/02 05:35:28;;;;;;;46.78;27.40;;;3.50;99.90;;;;;;5014504;28;20053;-82
2022/12/02 05:37:53;;;;;;;40.45;25.77;;;3.30;99.90;;;;;;5011978;28;20042;-81
2022/12/02 05:40:19;;;;;;;45.40;26.73;;;2.40;99.90;;;;;;5011070;28;20727;-80
2022/12/02 05:42:45;;;;;;;49.22;27.40;;;3.30;99.90;;;;;;5017186;28;20084;-81
2022/12/02 05:45:18;;;;;;;48.35;26.60;;;3.40;99.90;;;;;;5021013;28;20546;-79
2022/12/02 05:47:48;;;;;;;37.05;24.35;;;3.40;99.90;;;;;;5018171;28;20038;-80
2022/12/02 05:50:14;;;;;;;42.92;26.10;;;3.40;99.90;;;;;;5015889;28;20136;-82
2022/12/02 05:52:42;;;;;;;44.83;24.42;;;3.50;99.90;;;;;;5020239;28;20089;-81
2022/12/02 05:55:19;;;;;;;49.45;26.27;;;3.80;99.90;;;;;;5024350;28;20486;-81
2022/12/02 05:57:46;;;;;;;46.55;25.08;;;3.50;99.90;;;;;;5019319;28;20828;-81
2022/12/02 06:00:18;;;;;;;41.47;28.10;;;3.50;99.90;;;;;;5018015;28;20049;-80
2022/12/02 06:02:47;;;;;;;51.55;26.65;;;3.50;99.90;;;;;;5022352;28;20056;-80
2022/12/02 06:05:27;;;;;;;53.13;27.63;;;3.50;99.90;;;;;;5025260;28;20049;-80
2022/12/02 06:08:00;;;;;;;45.63;27.33;;;3.60;99.90;;;;;;5018161;28;20053;-80
2022/12/02 06:10:27;;;;;;;45.58;26.23;;;4.00;99.90;;;;;;5016877;28;20402;-81
2022/12/02 06:12:57;;;;;;;51.30;28.73;;;3.60;99.90;;;;;;5009022;28;20046;-82
2022/12/02 06:15:23;;;;;;;43.28;26.42;;;3.90;99.90;;;;;;5018449;28;20049;-81
2022/12/02 06:17:49;;;;;;;49.15;26.80;;;4.10;99.90;;;;;;5018091;28;20049;-79
2022/12/02 06:20:27;;;;;;;46.90;28.60;;;3.70;99.90;;;;;;5016287;28;20640;-79
2022/12/02 06:22:53;;;;;;;47.65;28.90;;;3.70;99.90;;;;;;5011234;28;20081;-81
2022/12/02 06:25:24;;;;;;;51.05;27.58;;;4.20;99.90;;;;;;5020486;28;20049;-82
2022/12/02 06:27:53;;;;;;;50.42;29.65;;;4.40;99.90;;;;;;5018275;28;20044;-80
2022/12/02 06:30:19;;;;;;;46.13;28.48;;;3.60;99.90;;;;;;5017318;28;20080;-81
2022/12/02 06:32:54;;;;;;;42.88;26.02;;;3.80;99.90;;;;;;5018231;28;20132;-80
2022/12/02 06:35:29;;;;;;;42.85;25.48;;;3.70;99.90;;;;;;5017325;28;21766;-80
2022/12/02 06:37:59;;;;;;;45.10;27.23;;;4.50;99.90;;;;;;5018279;28;20092;-81
2022/12/02 06:40:30;;;;;;;47.65;27.85;;;3.70;99.90;;;;;;5016041;28;20755;-82
2022/12/02 06:42:57;;;;;;;48.10;26.38;;;4.00;99.90;;;;;;5023509;28;20049;-81
2022/12/02 06:45:28;;;;;;;46.25;26.95;;;3.70;99.90;;;;;;5022132;28;20046;-81
2022/12/02 06:48:14;;;;;;;44.95;27.30;;;3.70;99.90;;;;;;5018621;28;20049;-81
2022/12/02 06:50:42;;;;;;;45.55;26.58;;;3.80;99.90;;;;;;5015730;28;20064;-81
2022/12/02 06:53:32;;;;;;;43.10;26.88;;;3.80;99.90;;;;;;5019708;28;20045;-81
2022/12/02 06:56:03;;;;;;;50.25;27.08;;;3.80;99.90;;;;;;5016549;28;20099;-81
2022/12/02 06:58:32;;;;;;;47.88;29.23;;;3.90;99.90;;;;;;5019411;28;20053;-83
2022/12/02 07:01:07;;;;;;;45.42;27.73;;;4.40;99.90;;;;;;5016200;28;20485;-81
2022/12/02 07:03:35;;;;;;;50.10;28.58;;;3.90;99.90;;;;;;5010500;28;20165;-80
2022/12/02 07:06:14;;;;;;;55.42;28.48;;;4.00;99.90;;;;;;5006466;28;20542;-82
2022/12/02 07:08:40;;;;;;;52.05;28.75;;;3.80;99.90;;;;;;5016061;28;20167;-81
2022/12/02 07:11:17;;;;;;;53.45;29.05;;;3.80;99.90;;;;;;5015476;28;20152;-80
2022/12/02 07:13:43;;;;;;;49.72;27.13;;;3.80;99.90;;;;;;5024233;28;20053;-82
2022/12/02 07:16:33;;;;;;;50.30;27.73;;;4.20;99.90;;;;;;5018674;28;20050;-81
2022/12/02 07:19:00;;;;;;;41.90;23.90;;;3.70;99.90;;;;;;5014292;28;20045;-82
2022/12/02 07:21:26;;;;;;;48.60;26.92;;;3.70;99.90;;;;;;5017602;28;20494;-80
2022/12/02 07:23:51;;;;;;;49.80;28.75;;;4.50;99.90;;;;;;5016668;28;20155;-83
2022/12/02 07:26:18;;;;;;;45.85;26.92;;;3.70;99.90;;;;;;5015275;28;20047;-81
2022/12/02 07:28:44;;;;;;;52.05;26.92;;;3.60;99.90;;;;;;5014087;28;20053;-83
2022/12/02 07:31:21;;;;;;;48.58;26.67;;;3.70;99.90;;;;;;5017846;28;20244;-81
2022/12/02 07:33:47;;;;;;;46.88;26.73;;;3.60;99.90;;;;;;5014884;28;20060;-81
2022/12/02 07:36:12;;;;;;;44.72;26.58;;;3.70;99.90;;;;;;5008320;28;20044;-81
2022/12/02 07:38:38;;;;;;;43.22;24.70;;;3.70;99.90;;;;;;5015519;28;20049;-81
2022/12/02 07:41:04;;;;;;;49.72;24.95;;;3.60;99.90;;;;;;5019589;28;20172;-80
2022/12/02 07:43:30;;;;;;;49.50;25.98;;;3.80;99.90;;;;;;5017790;28;20045;-79
2022/12/02 07:45:57;;;;;;;48.13;26.73;;;3.50;99.90;;;;;;5015284;28;20053;-82
2022/12/02 07:48:22;;;;;;;57.25;27.08;;;3.50;99.90;;;;;;5020542;28;20044;-80
2022/12/02 07:50:48;;;;;;;53.88;28.20;;;4.30;99.90;;;;;;5010132;28;20045;-79
2022/12/02 07:53:14;;;;;;;49.38;25.17;;;3.40;99.90;;;;;;5008105;28;20045;-80
2022/12/02 07:55:40;;;;;;;55.33;27.92;;;3.40;99.90;;;;;;5014647;28;20067;-80
2022/12/02 07:58:06;;;;;;;54.95;28.38;;;3.40;99.90;;;;;;5014502;28;20898;-81
2022/12/02 08:00:31;;;;;;;48.28;26.90;;;4.40;99.90;;;;;;5023188;28;20053;-79
2022/12/02 08:02:57;;;;;;;51.97;28.55;;;3.30;99.90;;;;;;5022565;28;20049;-81
2022/12/02 08:05:23;;;;;;;53.92;26.65;;;4.00;99.90;;;;;;5014556;28;20048;-79
2022/12/02 08:07:49;;;;;;;52.92;27.52;;;4.50;99.90;;;;;;5013909;28;20045;-81
2022/12/02 08:10:15;;;;;;;52.42;25.92;;;3.30;99.90;;;;;;4997368;28;20754;-82
2022/12/02 08:12:41;;;;;;;49.05;25.20;;;3.30;99.90;;;;;;5011515;28;20156;-79
2022/12/02 08:15:09;;;;;;;52.60;25.45;;;3.40;99.90;;;;;;5017928;28;20131;-79
2022/12/02 08:17:35;;;;;;;49.20;26.67;;;3.30;99.90;;;;;;5016124;28;20207;-80
2022/12/02 08:20:02;;;;;;;41.15;26.23;;;3.50;99.90;;;;;;5019072;28;20520;-80
2022/12/02 08:22:28;;;;;;;55.25;25.88;;;3.30;99.90;;;;;;5014517;28;20053;-80
2022/12/02 08:24:54;;;;;;;47.78;25.40;;;3.30;99.90;;;;;;5012952;28;20127;-80
2022/12/02 08:27:21;;;;;;;39.75;21.08;;;3.20;99.90;;;;;;5018054;28;20060;-79
2022/12/02 08:29:48;;;;;;;45.35;23.63;;;3.20;99.90;;;;;;5016749;28;20453;-79
2022/12/02 08:32:15;;;;;;;46.40;24.60;;;3.20;99.90;;;;;;5033281;28;20048;-80
2022/12/02 08:34:41;;;;;;;45.40;22.27;;;3.20;99.90;;;;;;5016704;28;20041;-79
2022/12/02 08:37:07;;;;;;;45.75;21.48;;;3.20;99.90;;;;;;5019511;28;20089;-82
2022/12/02 08:39:33;;;;;;;39.63;23.23;;;4.20;99.90;;;;;;5015524;28;20042;-80
2022/12/02 08:41:59;;;;;;;46.42;23.05;;;3.10;99.90;;;;;;5017075;28;20050;-81
2022/12/02 08:44:24;;;;;;;40.60;23.23;;;3.10;99.90;;;;;;5020017;28;20149;-79
2022/12/02 08:46:50;;;;;;;45.78;22.63;;;4.00;99.90;;;;;;5019386;28;20549;-82
2022/12/02 08:49:16;;;;;;;41.55;23.10;;;3.70;99.90;;;;;;5017326;28;20053;-81
2022/12/02 08:51:42;;;;;;;40.60;21.13;;;3.10;99.90;;;;;;5024684;28;20045;-80
2022/12/02 08:54:08;;;;;;;39.63;23.75;;;3.10;99.90;;;;;;5010273;28;20053;-82
2022/12/02 08:56:34;;;;;;;45.42;20.90;;;3.10;99.90;;;;;;5019205;28;20049;-81
2022/12/02 08:58:59;;;;;;;43.22;22.75;;;3.10;99.90;;;;;;5015132;28;20073;-79
2022/12/02 09:01:25;;;;;;;42.67;22.65;;;3.40;99.90;;;;;;5011058;28;20191;-79
2022/12/02 09:03:51;;;;;;;44.55;22.30;;;3.10;99.90;;;;;;5007999;28;20046;-80
2022/12/02 09:06:16;;;;;;;42.60;21.05;;;3.60;99.90;;;;;;5014787;28;20123;-78
2022/12/02 09:08:42;;;;;;;38.92;21.90;;;3.10;99.90;;;;;;5013045;28;20040;-80
2022/12/02 09:11:08;;;;;;;39.60;20.80;;;3.60;99.90;;;;;;5020073;28;20129;-80
2022/12/02 09:13:33;;;;;;;41.45;22.40;;;3.30;99.90;;;;;;5015337;28;20057;-81
2022/12/02 09:15:59;;;;;;;46.17;23.92;;;3.00;99.90;;;;;;5019313;28;20135;-79
2022/12/02 09:18:25;;;;;;;46.00;21.48;;;3.30;99.90;;;;;;5017766;28;20132;-80
2022/12/02 09:20:50;;;;;;;44.25;22.42;;;3.60;99.90;;;;;;5018314;28;20503;-79
2022/12/02 09:23:16;;;;;;;44.08;23.05;;;3.80;99.90;;;;;;5015957;28;20111;-81
2022/12/02 09:25:42;;;;;;;47.85;25.27;;;3.90;99.90;;;;;;5019237;28;20057;-80
2022/12/02 09:28:07;;;;;;;53.67;25.65;;;3.20;99.90;;;;;;5016089;28;20050;-80
2022/12/02 09:30:33;;;;;;;49.53;23.80;;;3.20;99.90;;;;;;5020653;28;20701;-79
2022/12/02 09:32:59;;;;;;;44.80;23.45;;;3.40;99.90;;;;;;5024758;28;20053;-78
2022/12/02 09:35:24;;;;;;;42.05;23.88;;;3.30;99.90;;;;;;5018941;28;21419;-80
2022/12/02 09:37:50;;;;;;;47.08;25.10;;;3.40;99.90;;;;;;5015255;28;20042;-80
2022/12/02 09:40:16;;;;;;;54.40;27.10;;;4.30;99.90;;;;;;5014128;28;20049;-81
2022/12/02 09:42:43;;;;;;;45.45;24.48;;;3.40;99.90;;;;;;5019730;28;20060;-80
2022/12/02 09:45:09;;;;;;;47.58;24.35;;;3.50;99.90;;;;;;5025894;28;20079;-79
2022/12/02 09:47:35;;;;;;;53.08;27.48;;;3.50;99.90;;;;;;5016679;28;21395;-78
2022/12/02 09:50:01;;;;;;;57.33;27.08;;;4.70;99.90;;;;;;5021552;28;20045;-80
2022/12/02 09:52:28;;;;;;;51.13;25.92;;;3.70;99.90;;;;;;5017320;28;20699;-80
2022/12/02 09:55:00;;;;;;;43.08;21.52;;;3.50;99.90;;;;;;5007109;28;20046;-79
2022/12/02 09:57:31;;;;;;;46.28;27.70;;;3.50;99.90;;;;;;5011260;28;20041;-80
2022/12/02 09:59:59;;;;;;;51.83;26.92;;;3.40;99.90;;;;;;5017008;28;20954;-80
2022/12/02 10:02:40;;;;;;;44.25;24.25;;;3.40;99.90;;;;;;5013753;28;20084;-80
2022/12/02 10:05:17;;;;;;;46.75;26.58;;;3.40;99.90;;;;;;5016303;28;20634;-79
2022/12/02 10:07:44;;;;;;;50.08;26.58;;;3.30;99.90;;;;;;5025672;28;20056;-80
2022/12/02 10:10:18;;;;;;;51.03;27.45;;;3.30;99.90;;;;;;5014618;28;20045;-79
2022/12/02 10:12:44;;;;;;;56.10;28.25;;;3.30;99.90;;;;;;5019687;28;20109;-79
2022/12/02 10:15:15;;;;;;;51.30;25.98;;;3.30;99.90;;;;;;5025193;28;20925;-80
2022/12/02 10:17:43;;;;;;;46.45;27.23;;;3.30;99.90;;;;;;5027174;28;20057;-79
2022/12/02 10:20:19;;;;;;;45.40;27.63;;;3.30;99.90;;;;;;5019702;28;20404;-79
2022/12/02 10:23:03;;;;;;;43.50;26.42;;;3.30;99.90;;;;;;5017109;28;20045;-80
2022/12/02 10:25:30;;;;;;;55.22;26.63;;;3.40;99.90;;;;;;5016251;28;20091;-80
2022/12/02 10:27:55;;;;;;;49.05;24.23;;;3.40;99.90;;;;;;5008705;28;20050;-79
2022/12/02 10:30:24;;;;;;;49.83;28.23;;;3.30;99.90;;;;;;5016588;28;20049;-79
2022/12/02 10:33:05;;;;;;;51.33;27.33;;;3.30;99.90;;;;;;5019205;28;20100;-79
2022/12/02 10:35:46;;;;;;;47.75;27.33;;;3.30;99.90;;;;;;5018396;28;20045;-73
2022/12/02 10:38:32;;;;;;;49.42;28.60;;;3.40;99.90;;;;;;5020038;28;20481;-73
2022/12/02 10:41:13;;;;;;;51.85;27.75;;;3.30;99.90;;;;;;5014343;28;20458;-80
2022/12/02 10:43:40;;;;;;;54.55;29.20;;;3.30;99.90;;;;;;5009299;28;20050;-78
2022/12/02 10:46:07;;;;;;;44.03;26.90;;;4.00;99.90;;;;;;5017562;28;20059;-79
2022/12/02 10:48:34;;;;;;;49.45;28.02;;;3.90;99.90;;;;;;5030499;28;20204;-79
2022/12/02 10:51:00;;;;;;;52.45;29.15;;;4.60;99.90;;;;;;5010257;28;20183;-79
2022/12/02 10:53:29;;;;;;;53.72;29.83;;;3.80;99.90;;;;;;5019608;28;20041;-79
2022/12/02 10:55:56;;;;;;;60.35;29.30;;;3.40;99.90;;;;;;5009240;28;20107;-80
2022/12/02 10:58:28;;;;;;;47.47;27.77;;;3.40;99.90;;;;;;5009161;28;20771;-79
2022/12/02 11:00:55;;;;;;;50.38;27.27;;;3.30;99.90;;;;;;5009591;28;20061;-80
2022/12/02 11:03:22;;;;;;;49.58;30.23;;;4.30;99.90;;;;;;5013319;28;20465;-80
2022/12/02 11:05:49;;;;;;;57.65;29.45;;;4.30;99.90;;;;;;5011431;28;20745;-80
2022/12/02 11:08:28;;;;;;;48.92;26.75;;;3.30;99.90;;;;;;5025394;28;20037;-79
2022/12/02 11:11:12;;;;;;;53.70;30.52;;;3.30;99.90;;;;;;5012457;28;20056;-78
2022/12/02 11:13:59;;;;;;;49.47;29.50;;;3.30;99.90;;;;;;5015411;28;20041;-78
2022/12/02 11:16:27;;;;;;;56.67;31.35;;;3.40;99.90;;;;;;5015880;28;20144;-81
2022/12/02 11:18:57;;;;;;;47.80;29.80;;;3.40;99.90;;;;;;5015406;28;20776;-80
2022/12/02 11:21:29;;;;;;;52.17;29.90;;;3.40;99.90;;;;;;5017455;28;20056;-79
2022/12/02 11:24:22;;;;;;;55.35;29.98;;;3.40;99.90;;;;;;5017313;28;20061;-79
2022/12/02 11:27:03;;;;;;;;;;;3.40;99.90;;;;;;5019937;28;20133;-78
2022/12/02 11:29:32;;;;;;;48.38;28.60;;;3.30;99.90;;;;;;5006430;28;19921;-78
2022/12/02 11:32:20;;;;;;;47.58;28.65;;;4.30;99.90;;;;;;5018832;28;20053;-79
2022/12/02 11:34:50;;;;;;;49.65;27.95;;;3.30;99.90;;;;;;5023260;28;20053;-80
2022/12/02 11:37:39;;;;;;;52.05;27.80;;;3.80;99.90;;;;;;5020217;28;20042;-78
2022/12/02 11:40:25;;;;;;;47.30;29.25;;;3.40;99.90;;;;;;5023878;28;20049;-79
2022/12/02 11:42:51;;;;;;;48.60;30.30;;;3.40;99.90;;;;;;5025846;28;20158;-79
2022/12/02 11:45:17;;;;;;;52.97;29.17;;;3.80;99.90;;;;;;5026047;28;20045;-79
2022/12/02 11:47:53;;;;;;;47.88;28.35;;;3.40;99.90;;;;;;5027859;28;20067;-81
2022/12/02 11:50:37;;;;;;;49.78;28.92;;;3.70;99.90;;;;;;5021105;28;20064;-78
2022/12/02 11:53:15;;;;;;;51.92;29.15;;;3.40;99.90;;;;;;5024676;28;20375;-77
2022/12/02 11:55:49;;;;;;;57.08;28.45;;;3.40;99.90;;;;;;5021658;28;20133;-78
2022/12/02 11:58:34;;;;;;;53.67;30.30;;;3.90;99.90;;;;;;5018996;28;20075;-78
2022/12/02 12:00:59;;;;;;;47.78;28.63;;;3.40;99.90;;;;;;5033836;28;20042;-76
2022/12/02 12:03:25;;;;;;;46.40;29.65;;;3.40;99.90;;;;;;5026642;28;20053;-78
2022/12/02 12:06:24;;;;;;;53.05;29.30;;;3.90;99.90;;;;;;5018773;28;20049;-77
2022/12/02 12:08:53;;;;;;;53.15;30.42;;;3.80;99.90;;;;;;4985155;28;20049;-78
2022/12/02 12:11:23;;;;;;;51.10;28.38;;;3.60;99.90;;;;;;5016872;28;20088;-78
2022/12/02 12:14:11;;;;;;;46.10;28.55;;;3.40;99.90;;;;;;5006866;28;20056;-77
2022/12/02 12:16:46;;;;;;;47.65;29.95;;;3.40;99.90;;;;;;5016137;28;20057;-79
2022/12/02 12:19:11;;;;;;;49.78;30.15;;;3.40;99.90;;;;;;5013931;28;20119;-78
2022/12/02 12:21:51;;;;;;;54.13;30.10;;;3.40;99.90;;;;;;5014938;28;20053;-78
2022/12/02 12:24:21;;;;;;;51.33;31.33;;;3.40;99.90;;;;;;5016891;28;20132;-78
2022/12/02 12:26:49;;;;;;;46.97;27.05;;;3.40;99.90;;;;;;5014683;28;20057;-77
2022/12/02 12:29:16;;;;;;;49.72;30.10;;;3.50;99.90;;;;;;5016037;28;20045;-77
2022/12/02 12:31:41;;;;;;;54.00;30.38;;;3.50;99.90;;;;;;5017051;28;20137;-77
2022/12/02 12:34:08;;;;;;;46.83;25.92;;;3.80;99.90;;;;;;5015607;28;20400;-78
2022/12/02 12:36:34;;;;;;;50.17;29.65;;;3.50;99.90;;;;;;5016468;28;20071;-78
2022/12/02 12:39:00;;;;;;;48.10;30.73;;;3.50;99.90;;;;;;5017165;28;20053;-78
2022/12/02 12:41:26;;;;;;;51.80;30.90;;;3.50;99.90;;;;;;5016668;28;20049;-77
2022/12/02 12:43:51;;;;;;;47.92;29.50;;;3.50;99.90;;;;;;5011006;28;20100;-78
2022/12/02 12:46:17;;;;;;;51.33;31.75;;;3.40;99.90;;;;;;5019984;28;20426;-78
2022/12/02 12:48:43;;;;;;;50.83;30.95;;;3.90;99.90;;;;;;5016618;28;20053;-77